sensor_id;sensor_type;location;lat;lon;timestamp;pressure;altitude;pressure_sealevel;temperature;humidity
76627;BME280;65519;53.230;10.390;2023-10-13T00:02:11;100839.34;;;12.76;100.00
76627;BME280;65519;53.230;10.390;2023-10-13T00:04:36;100844.81;;;12.76;100.00
76627;BME280;65519;53.230;10.390;2023-10-13T00:07:02;100848.66;;;12.75;100.00
76627;BME280;65519;53.230;10.390;2023-10-13T00:09:29;100844.53;;;12.72;100.00
76627;BME280;65519;53.230;10.390;2023-10-13T00:12:01;100843.16;;;12.75;100.00
76627;BME280;65519;53.230;10.390;2023-10-13T00:14:28;100844.50;;;12.77;100.00
76627;BME280;65519;53.230;10.390;2023-10-13T00:17:01;100843.72;;;12.72;100.00
76627;BME280;65519;53.230;10.390;2023-10-13T00:19:37;100830.28;;;12.80;100.00
76627;BME280;65519;53.230;10.390;2023-10-13T00:22:10;100830.25;;;12.86;100.00
76627;BME280;65519;53.230;10.390;2023-10-13T00:24:40;100830.25;;;12.86;100.00
76627;BME280;65519;53.230;10.390;2023-10-13T00:27:15;100821.25;;;12.85;100.00
76627;BME280;65519;53.230;10.390;2023-10-13T00:30:10;100820.91;;;12.92;100.00
76627;BME280;65519;53.230;10.390;2023-10-13T00:32:51;100822.03;;;12.91;100.00
76627;BME280;65519;53.230;10.390;2023-10-13T00:35:21;100817.59;;;13.00;100.00
76627;BME280;65519;53.230;10.390;2023-10-13T00:38:07;100816.28;;;12.92;100.00
76627;BME280;65519;53.230;10.390;2023-10-13T00:40:39;100817.34;;;12.96;100.00
76627;BME280;65519;53.230;10.390;2023-10-13T00:43:05;100812.44;;;12.93;100.00
76627;BME280;65519;53.230;10.390;2023-10-13T00:48:24;100810.25;;;12.95;100.00
76627;BME280;65519;53.230;10.390;2023-10-13T00:51:02;100812.69;;;12.97;100.00
76627;BME280;65519;53.230;10.390;2023-10-13T00:53:38;100802.03;;;12.95;100.00
76627;BME280;65519;53.230;10.390;2023-10-13T00:56:09;100799.84;;;12.97;100.00
76627;BME280;65519;53.230;10.390;2023-10-13T00:58:47;100793.75;;;13.05;100.00
76627;BME280;65519;53.230;10.390;2023-10-13T01:01:17;100792.13;;;13.04;100.00
76627;BME280;65519;53.230;10.390;2023-10-13T01:03:53;100784.19;;;13.03;100.00
76627;BME280;65519;53.230;10.390;2023-10-13T01:06:22;100786.31;;;13.11;100.00
76627;BME280;65519;53.230;10.390;2023-10-13T01:09:01;100782.56;;;13.02;100.00
76627;BME280;65519;53.230;10.390;2023-10-13T01:11:50;100789.06;;;13.11;100.00
76627;BME280;65519;53.230;10.390;2023-10-13T01:14:19;100782.28;;;13.03;100.00
76627;BME280;65519;53.230;10.390;2023-10-13T01:16:46;100777.59;;;13.14;100.00
76627;BME280;65519;53.230;10.390;2023-10-13T01:19:16;100776.22;;;13.17;100.00
76627;BME280;65519;53.230;10.390;2023-10-13T01:21:50;100768.00;;;13.17;100.00
76627;BME280;65519;53.230;10.390;2023-10-13T01:24:19;100767.13;;;13.21;100.00
76627;BME280;65519;53.230;10.390;2023-10-13T01:26:49;100751.56;;;13.17;100.00
76627;BME280;65519;53.230;10.390;2023-10-13T01:29:16;100753.22;;;13.18;100.00
76627;BME280;65519;53.230;10.390;2023-10-13T01:31:45;100761.94;;;13.20;100.00
76627;BME280;65519;53.230;10.390;2023-10-13T01:34:18;100759.72;;;13.22;100.00
76627;BME280;65519;53.230;10.390;2023-10-13T01:36:51;100752.63;;;13.21;100.00
76627;BME280;65519;53.230;10.390;2023-10-13T01:39:24;100748.84;;;13.17;100.00
76627;BME280;65519;53.230;10.390;2023-10-13T01:41:57;100755.13;;;13.17;100.00
76627;BME280;65519;53.230;10.390;2023-10-13T01:44:26;100748.84;;;13.17;100.00
76627;BME280;65519;53.230;10.390;2023-10-13T01:46:59;100735.69;;;13.13;100.00
76627;BME280;65519;53.230;10.390;2023-10-13T01:49:32;100735.06;;;13.27;100.00
76627;BME280;65519;53.230;10.390;2023-10-13T01:52:06;100735.34;;;13.25;100.00
76627;BME280;65519;53.230;10.390;2023-10-13T01:54:32;100739.44;;;13.28;100.00
76627;BME280;65519;53.230;10.390;2023-10-13T01:56:57;100727.41;;;13.29;100.00
76627;BME280;65519;53.230;10.390;2023-10-13T01:59:25;100718.59;;;13.32;100.00
76627;BME280;65519;53.230;10.390;2023-10-13T02:01:52;100722.16;;;13.32;100.00
76627;BME280;65519;53.230;10.390;2023-10-13T02:04:20;100717.81;;;13.26;100.00
76627;BME280;65519;53.230;10.390;2023-10-13T02:06:46;100701.72;;;13.20;100.00
76627;BME280;65519;53.230;10.390;2023-10-13T02:09:12;100711.53;;;13.26;100.00
76627;BME280;65519;53.230;10.390;2023-10-13T02:11:51;100709.56;;;13.31;100.00
76627;BME280;65519;53.230;10.390;2023-10-13T02:14:22;100699.94;;;13.39;100.00
76627;BME280;65519;53.230;10.390;2023-10-13T02:16:48;100699.41;;;13.37;100.00
76627;BME280;65519;53.230;10.390;2023-10-13T02:19:21;100694.16;;;13.40;100.00
76627;BME280;65519;53.230;10.390;2023-10-13T02:21:47;100686.78;;;13.41;100.00
76627;BME280;65519;53.230;10.390;2023-10-13T02:24:24;100684.81;;;13.41;100.00
76627;BME280;65519;53.230;10.390;2023-10-13T02:26:56;100686.44;;;13.47;100.00
76627;BME280;65519;53.230;10.390;2023-10-13T02:29:28;100679.56;;;13.50;100.00
76627;BME280;65519;53.230;10.390;2023-10-13T02:31:54;100668.00;;;13.53;100.00
76627;BME280;65519;53.230;10.390;2023-10-13T02:34:21;100673.44;;;13.58;100.00
76627;BME280;65519;53.230;10.390;2023-10-13T02:36:48;100671.28;;;13.55;100.00
76627;BME280;65519;53.230;10.390;2023-10-13T02:39:15;100668.50;;;13.60;100.00
76627;BME280;65519;53.230;10.390;2023-10-13T02:41:50;100660.56;;;13.59;100.00
76627;BME280;65519;53.230;10.390;2023-10-13T02:44:16;100660.19;;;13.70;100.00
76627;BME280;65519;53.230;10.390;2023-10-13T02:46:56;100659.13;;;13.66;100.00
76627;BME280;65519;53.230;10.390;2023-10-13T02:49:24;100651.00;;;13.56;100.00
76627;BME280;65519;53.230;10.390;2023-10-13T02:51:51;100656.72;;;13.60;100.00
76627;BME280;65519;53.230;10.390;2023-10-13T02:54:18;100653.72;;;13.61;100.00
76627;BME280;65519;53.230;10.390;2023-10-13T02:56:44;100648.72;;;13.63;100.00
76627;BME280;65519;53.230;10.390;2023-10-13T02:59:15;100644.88;;;13.64;100.00
76627;BME280;65519;53.230;10.390;2023-10-13T03:01:44;100650.16;;;13.61;100.00
76627;BME280;65519;53.230;10.390;2023-10-13T03:04:10;100650.91;;;13.66;100.00
76627;BME280;65519;53.230;10.390;2023-10-13T03:06:38;100643.78;;;13.65;100.00
76627;BME280;65519;53.230;10.390;2023-10-13T03:09:08;100636.09;;;13.67;100.00
76627;BME280;65519;53.230;10.390;2023-10-13T03:11:51;100617.44;;;13.69;100.00
76627;BME280;65519;53.230;10.390;2023-10-13T03:14:18;100616.91;;;13.67;100.00
76627;BME280;65519;53.230;10.390;2023-10-13T03:16:57;100626.19;;;13.71;100.00
76627;BME280;65519;53.230;10.390;2023-10-13T03:19:48;100616.06;;;13.72;100.00
76627;BME280;65519;53.230;10.390;2023-10-13T03:22:19;100611.03;;;13.79;100.00
76627;BME280;65519;53.230;10.390;2023-10-13T03:24:55;100606.09;;;13.81;100.00
76627;BME280;65519;53.230;10.390;2023-10-13T03:27:25;100605.44;;;13.89;100.00
76627;BME280;65519;53.230;10.390;2023-10-13T03:30:04;100604.78;;;13.97;100.00
76627;BME280;65519;53.230;10.390;2023-10-13T03:32:36;100596.22;;;14.04;100.00
76627;BME280;65519;53.230;10.390;2023-10-13T03:35:07;100594.00;;;14.06;100.00
76627;BME280;65519;53.230;10.390;2023-10-13T03:37:54;100591.75;;;14.08;100.00
76627;BME280;65519;53.230;10.390;2023-10-13T03:40:21;100585.69;;;14.11;100.00
76627;BME280;65519;53.230;10.390;2023-10-13T03:42:50;100586.75;;;14.15;100.00
76627;BME280;65519;53.230;10.390;2023-10-13T03:45:44;100576.59;;;14.15;100.00
76627;BME280;65519;53.230;10.390;2023-10-13T03:48:16;100575.16;;;14.18;100.00
76627;BME280;65519;53.230;10.390;2023-10-13T03:51:00;100568.50;;;14.24;100.00
76627;BME280;65519;53.230;10.390;2023-10-13T03:53:32;100567.94;;;14.27;100.00
76627;BME280;65519;53.230;10.390;2023-10-13T03:56:05;100566.28;;;14.26;100.00
76627;BME280;65519;53.230;10.390;2023-10-13T03:58:38;100554.50;;;14.25;100.00
76627;BME280;65519;53.230;10.390;2023-10-13T04:01:04;100568.34;;;14.34;100.00
76627;BME280;65519;53.230;10.390;2023-10-13T04:03:35;100552.13;;;14.38;100.00
76627;BME280;65519;53.230;10.390;2023-10-13T04:06:05;100544.72;;;14.38;100.00
76627;BME280;65519;53.230;10.390;2023-10-13T04:08:34;100549.84;;;14.45;100.00
76627;BME280;65519;53.230;10.390;2023-10-13T04:11:08;100544.06;;;14.46;100.00
76627;BME280;65519;53.230;10.390;2023-10-13T04:13:52;100546.94;;;14.55;100.00
76627;BME280;65519;53.230;10.390;2023-10-13T04:16:37;100541.06;;;14.61;100.00
76627;BME280;65519;53.230;10.390;2023-10-13T04:19:05;100546.47;;;14.67;100.00
76627;BME280;65519;53.230;10.390;2023-10-13T04:21:33;100540.69;;;14.68;100.00
76627;BME280;65519;53.230;10.390;2023-10-13T04:24:09;100541.50;;;14.69;100.00
76627;BME280;65519;53.230;10.390;2023-10-13T04:26:44;100533.19;;;14.74;100.00
76627;BME280;65519;53.230;10.390;2023-10-13T04:29:28;100535.84;;;14.79;100.00
76627;BME280;65519;53.230;10.390;2023-10-13T04:32:12;100534.44;;;14.81;100.00
76627;BME280;65519;53.230;10.390;2023-10-13T04:34:56;100535.44;;;14.85;100.00
76627;BME280;65519;53.230;10.390;2023-10-13T04:37:25;100526.09;;;14.86;100.00
76627;BME280;65519;53.230;10.390;2023-10-13T04:39:53;100519.72;;;14.91;100.00
76627;BME280;65519;53.230;10.390;2023-10-13T04:42:24;100523.47;;;14.95;100.00
76627;BME280;65519;53.230;10.390;2023-10-13T04:45:16;100516.56;;;14.97;100.00
76627;BME280;65519;53.230;10.390;2023-10-13T04:48:00;100503.59;;;15.03;100.00
76627;BME280;65519;53.230;10.390;2023-10-13T04:50:49;100497.28;;;15.03;100.00
76627;BME280;65519;53.230;10.390;2023-10-13T04:53:24;100489.97;;;15.12;100.00
76627;BME280;65519;53.230;10.390;2023-10-13T04:56:00;100476.75;;;15.14;100.00
76627;BME280;65519;53.230;10.390;2023-10-13T04:58:32;100485.69;;;15.19;100.00
76627;BME280;65519;53.230;10.390;2023-10-13T05:01:03;100478.56;;;15.18;100.00
76627;BME280;65519;53.230;10.390;2023-10-13T05:03:48;100473.59;;;15.20;100.00
76627;BME280;65519;53.230;10.390;2023-10-13T05:06:33;100472.47;;;15.21;100.00
76627;BME280;65519;53.230;10.390;2023-10-13T05:09:07;100459.25;;;15.23;100.00
76627;BME280;65519;53.230;10.390;2023-10-13T05:11:51;100467.69;;;15.27;100.00
76627;BME280;65519;53.230;10.390;2023-10-13T05:14:36;100457.41;;;15.32;100.00
76627;BME280;65519;53.230;10.390;2023-10-13T05:17:19;100455.47;;;15.33;100.00
76627;BME280;65519;53.230;10.390;2023-10-13T05:20:04;100455.66;;;15.37;100.00
76627;BME280;65519;53.230;10.390;2023-10-13T05:22:48;100449.88;;;15.38;100.00
76627;BME280;65519;53.230;10.390;2023-10-13T05:25:35;100449.56;;;15.40;100.00
76627;BME280;65519;53.230;10.390;2023-10-13T05:28:39;100436.94;;;15.39;100.00
76627;BME280;65519;53.230;10.390;2023-10-13T05:31:22;100434.72;;;15.41;100.00
76627;BME280;65519;53.230;10.390;2023-10-13T05:34:06;100434.63;;;15.46;100.00
76627;BME280;65519;53.230;10.390;2023-10-13T05:36:50;100434.19;;;15.52;100.00
76627;BME280;65519;53.230;10.390;2023-10-13T05:39:34;100425.75;;;15.49;100.00
76627;BME280;65519;53.230;10.390;2023-10-13T05:42:18;100426.50;;;15.54;100.00
76627;BME280;65519;53.230;10.390;2023-10-13T05:45:02;100419.88;;;15.55;100.00
76627;BME280;65519;53.230;10.390;2023-10-13T05:47:34;100418.25;;;15.54;100.00
76627;BME280;65519;53.230;10.390;2023-10-13T05:50:11;100423.91;;;15.58;100.00
76627;BME280;65519;53.230;10.390;2023-10-13T05:52:49;100415.19;;;15.56;100.00
76627;BME280;65519;53.230;10.390;2023-10-13T05:55:17;100411.63;;;15.55;100.00
76627;BME280;65519;53.230;10.390;2023-10-13T05:58:01;100416.50;;;15.58;100.00
76627;BME280;65519;53.230;10.390;2023-10-13T06:00:45;100405.91;;;15.52;100.00
76627;BME280;65519;53.230;10.390;2023-10-13T06:03:29;100417.13;;;15.55;100.00
76627;BME280;65519;53.230;10.390;2023-10-13T06:06:13;100405.19;;;15.60;100.00
76627;BME280;65519;53.230;10.390;2023-10-13T06:08:57;100410.38;;;15.61;100.00
76627;BME280;65519;53.230;10.390;2023-10-13T06:11:40;100408.44;;;15.62;100.00
76627;BME280;65519;53.230;10.390;2023-10-13T06:14:25;100408.06;;;15.55;100.00
76627;BME280;65519;53.230;10.390;2023-10-13T06:17:08;100410.59;;;15.65;100.00
76627;BME280;65519;53.230;10.390;2023-10-13T06:19:52;100402.44;;;15.60;100.00
76627;BME280;65519;53.230;10.390;2023-10-13T06:22:36;100415.47;;;15.68;100.00
76627;BME280;65519;53.230;10.390;2023-10-13T06:25:20;100416.91;;;15.65;100.00
76627;BME280;65519;53.230;10.390;2023-10-13T06:28:04;100412.00;;;15.62;100.00
76627;BME280;65519;53.230;10.390;2023-10-13T06:30:59;100403.25;;;15.60;100.00
76627;BME280;65519;53.230;10.390;2023-10-13T06:33:26;100403.97;;;15.66;100.00
76627;BME280;65519;53.230;10.390;2023-10-13T06:35:57;100399.47;;;15.70;100.00
76627;BME280;65519;53.230;10.390;2023-10-13T06:38:23;100398.19;;;15.67;100.00
76627;BME280;65519;53.230;10.390;2023-10-13T06:40:49;100393.66;;;15.72;100.00
76627;BME280;65519;53.230;10.390;2023-10-13T06:43:18;100385.56;;;15.66;100.00
76627;BME280;65519;53.230;10.390;2023-10-13T06:45:48;100390.09;;;15.71;100.00
76627;BME280;65519;53.230;10.390;2023-10-13T06:48:26;100388.00;;;15.68;100.00
76627;BME280;65519;53.230;10.390;2023-10-13T06:50:52;100383.94;;;15.65;100.00
76627;BME280;65519;53.230;10.390;2023-10-13T06:53:20;100389.28;;;15.70;100.00
76627;BME280;65519;53.230;10.390;2023-10-13T06:55:46;100387.03;;;15.73;100.00
76627;BME280;65519;53.230;10.390;2023-10-13T06:58:13;100385.13;;;15.73;100.00
76627;BME280;65519;53.230;10.390;2023-10-13T07:00:42;100381.84;;;15.71;100.00
76627;BME280;65519;53.230;10.390;2023-10-13T07:03:19;100386.84;;;15.69;100.00
76627;BME280;65519;53.230;10.390;2023-10-13T07:05:45;100371.69;;;15.72;100.00
76627;BME280;65519;53.230;10.390;2023-10-13T07:08:12;100374.72;;;15.70;100.00
76627;BME280;65519;53.230;10.390;2023-10-13T07:13:14;100374.94;;;15.74;100.00
76627;BME280;65519;53.230;10.390;2023-10-13T07:15:40;100370.88;;;15.71;100.00
76627;BME280;65519;53.230;10.390;2023-10-13T07:18:15;100366.38;;;15.75;100.00
76627;BME280;65519;53.230;10.390;2023-10-13T07:20:44;100364.97;;;15.78;100.00
76627;BME280;65519;53.230;10.390;2023-10-13T07:23:13;100352.34;;;15.77;100.00
76627;BME280;65519;53.230;10.390;2023-10-13T07:25:54;100354.13;;;15.81;100.00
76627;BME280;65519;53.230;10.390;2023-10-13T07:28:21;100353.16;;;15.77;100.00
76627;BME280;65519;53.230;10.390;2023-10-13T07:30:47;100349.28;;;15.78;100.00
76627;BME280;65519;53.230;10.390;2023-10-13T07:33:19;100338.75;;;15.80;100.00
76627;BME280;65519;53.230;10.390;2023-10-13T07:36:08;100334.72;;;15.78;100.00
76627;BME280;65519;53.230;10.390;2023-10-13T07:38:41;100316.28;;;15.78;100.00
76627;BME280;65519;53.230;10.390;2023-10-13T07:41:08;100316.78;;;15.80;100.00
76627;BME280;65519;53.230;10.390;2023-10-13T07:43:34;100308.88;;;15.79;100.00
76627;BME280;65519;53.230;10.390;2023-10-13T07:46:02;100322.91;;;15.77;100.00
76627;BME280;65519;53.230;10.390;2023-10-13T07:48:36;100310.97;;;15.82;100.00
76627;BME280;65519;53.230;10.390;2023-10-13T07:51:04;100297.41;;;15.85;100.00
76627;BME280;65519;53.230;10.390;2023-10-13T07:53:31;100289.47;;;15.84;100.00
76627;BME280;65519;53.230;10.390;2023-10-13T07:56:11;100285.31;;;15.86;100.00
76627;BME280;65519;53.230;10.390;2023-10-13T07:58:40;100278.50;;;15.84;100.00
76627;BME280;65519;53.230;10.390;2023-10-13T08:01:21;100268.81;;;15.86;100.00
76627;BME280;65519;53.230;10.390;2023-10-13T08:03:47;100253.13;;;15.87;100.00
76627;BME280;65519;53.230;10.390;2023-10-13T08:06:16;100236.78;;;15.90;100.00
76627;BME280;65519;53.230;10.390;2023-10-13T08:08:42;100240.84;;;15.93;100.00
76627;BME280;65519;53.230;10.390;2023-10-13T08:13:58;100242.28;;;15.90;100.00
76627;BME280;65519;53.230;10.390;2023-10-13T08:16:42;100225.03;;;15.90;100.00
76627;BME280;65519;53.230;10.390;2023-10-13T08:19:23;100222.59;;;15.88;100.00
76627;BME280;65519;53.230;10.390;2023-10-13T08:21:53;100228.72;;;15.85;100.00
76627;BME280;65519;53.230;10.390;2023-10-13T08:24:39;100220.66;;;15.89;100.00
76627;BME280;65519;53.230;10.390;2023-10-13T08:27:06;100218.53;;;15.86;100.00
76627;BME280;65519;53.230;10.390;2023-10-13T08:29:45;100220.78;;;15.84;100.00
76627;BME280;65519;53.230;10.390;2023-10-13T08:32:24;100221.59;;;15.84;100.00
76627;BME280;65519;53.230;10.390;2023-10-13T08:34:53;100212.22;;;15.85;100.00
76627;BME280;65519;53.230;10.390;2023-10-13T08:37:20;100215.28;;;15.84;100.00
76627;BME280;65519;53.230;10.390;2023-10-13T08:39:49;100210.72;;;15.79;100.00
76627;BME280;65519;53.230;10.390;2023-10-13T08:42:45;100206.38;;;15.78;100.00
76627;BME280;65519;53.230;10.390;2023-10-13T08:45:15;100192.75;;;15.73;100.00
76627;BME280;65519;53.230;10.390;2023-10-13T08:47:59;100197.75;;;15.71;100.00
76627;BME280;65519;53.230;10.390;2023-10-13T08:53:24;100191.75;;;15.69;100.00
76627;BME280;65519;53.230;10.390;2023-10-13T08:58:37;100192.75;;;15.73;100.00
76627;BME280;65519;53.230;10.390;2023-10-13T09:01:31;100189.69;;;15.75;100.00
76627;BME280;65519;53.230;10.390;2023-10-13T09:03:58;100195.03;;;15.80;100.00
76627;BME280;65519;53.230;10.390;2023-10-13T09:07:05;100189.59;;;15.88;100.00
76627;BME280;65519;53.230;10.390;2023-10-13T09:12:12;100197.69;;;15.93;100.00
76627;BME280;65519;53.230;10.390;2023-10-13T09:14:40;100201.59;;;16.01;100.00
76627;BME280;65519;53.230;10.390;2023-10-13T09:17:26;100191.09;;;16.03;100.00
76627;BME280;65519;53.230;10.390;2023-10-13T09:20:05;100212.47;;;16.06;100.00
76627;BME280;65519;53.230;10.390;2023-10-13T09:22:56;100210.38;;;16.12;100.00
76627;BME280;65519;53.230;10.390;2023-10-13T09:25:31;100230.81;;;16.19;100.00
76627;BME280;65519;53.230;10.390;2023-10-13T09:28:00;100224.84;;;16.26;100.00
76627;BME280;65519;53.230;10.390;2023-10-13T09:30:26;100214.03;;;16.38;100.00
76627;BME280;65519;53.230;10.390;2023-10-13T09:33:04;100199.00;;;16.44;100.00
76627;BME280;65519;53.230;10.390;2023-10-13T09:35:43;100195.59;;;16.47;100.00
76627;BME280;65519;53.230;10.390;2023-10-13T09:38:18;100201.28;;;16.51;100.00
76627;BME280;65519;53.230;10.390;2023-10-13T09:40:44;100197.56;;;16.55;100.00
76627;BME280;65519;53.230;10.390;2023-10-13T09:43:18;100189.97;;;16.61;100.00
76627;BME280;65519;53.230;10.390;2023-10-13T09:45:48;100184.81;;;16.68;100.00
76627;BME280;65519;53.230;10.390;2023-10-13T09:48:44;100174.19;;;16.75;100.00
76627;BME280;65519;53.230;10.390;2023-10-13T09:51:13;100177.56;;;16.81;100.00
76627;BME280;65519;53.230;10.390;2023-10-13T09:53:40;100164.13;;;16.70;100.00
76627;BME280;65519;53.230;10.390;2023-10-13T09:56:14;100175.13;;;16.79;100.00
76627;BME280;65519;53.230;10.390;2023-10-13T09:59:01;100167.03;;;16.83;100.00
76627;BME280;65519;53.230;10.390;2023-10-13T10:01:37;100169.47;;;16.84;100.00
76627;BME280;65519;53.230;10.390;2023-10-13T10:04:08;100159.41;;;16.79;100.00
76627;BME280;65519;53.230;10.390;2023-10-13T10:06:57;100158.78;;;16.83;100.00
76627;BME280;65519;53.230;10.390;2023-10-13T10:09:29;100146.47;;;16.80;100.00
76627;BME280;65519;53.230;10.390;2023-10-13T10:15:07;100136.75;;;16.83;100.00
76627;BME280;65519;53.230;10.390;2023-10-13T10:17:41;100138.38;;;16.84;100.00
76627;BME280;65519;53.230;10.390;2023-10-13T10:20:07;100134.19;;;16.86;100.00
76627;BME280;65519;53.230;10.390;2023-10-13T10:22:41;100129.81;;;16.85;100.00
76627;BME280;65519;53.230;10.390;2023-10-13T10:25:13;100136.59;;;16.88;100.00
76627;BME280;65519;53.230;10.390;2023-10-13T10:27:58;100129.94;;;16.89;100.00
76627;BME280;65519;53.230;10.390;2023-10-13T10:30:27;100120.91;;;16.97;100.00
76627;BME280;65519;53.230;10.390;2023-10-13T10:32:57;100103.88;;;17.03;100.00
76627;BME280;65519;53.230;10.390;2023-10-13T10:35:25;100106.13;;;17.10;100.00
76627;BME280;65519;53.230;10.390;2023-10-13T10:38:15;100099.81;;;17.18;100.00
76627;BME280;65519;53.230;10.390;2023-10-13T10:41:04;100096.84;;;17.23;100.00
76627;BME280;65519;53.230;10.390;2023-10-13T10:48:36;100070.38;;;17.48;100.00
76627;BME280;65519;53.230;10.390;2023-10-13T10:51:03;100073.91;;;17.57;100.00
76627;BME280;65519;53.230;10.390;2023-10-13T10:53:34;100068.53;;;17.61;100.00
76627;BME280;65519;53.230;10.390;2023-10-13T10:56:12;100050.53;;;17.72;100.00
76627;BME280;65519;53.230;10.390;2023-10-13T10:58:58;100039.66;;;17.96;100.00
76627;BME280;65519;53.230;10.390;2023-10-13T11:01:29;100033.84;;;18.18;100.00
76627;BME280;65519;53.230;10.390;2023-10-13T11:04:06;100026.03;;;18.20;100.00
76627;BME280;65519;53.230;10.390;2023-10-13T11:06:51;100008.97;;;18.27;100.00
76627;BME280;65519;53.230;10.390;2023-10-13T11:09:34;100008.06;;;18.35;100.00
76627;BME280;65519;53.230;10.390;2023-10-13T11:14:31;100000.69;;;18.27;100.00
76627;BME280;65519;53.230;10.390;2023-10-13T11:16:58;99996.41;;;18.30;100.00
76627;BME280;65519;53.230;10.390;2023-10-13T11:19:34;99996.72;;;18.37;100.00
76627;BME280;65519;53.230;10.390;2023-10-13T11:22:36;99985.50;;;18.54;100.00
76627;BME280;65519;53.230;10.390;2023-10-13T11:25:03;99981.53;;;18.64;100.00
76627;BME280;65519;53.230;10.390;2023-10-13T11:27:38;99990.44;;;18.69;100.00
76627;BME280;65519;53.230;10.390;2023-10-13T11:30:26;99973.38;;;18.67;100.00
76627;BME280;65519;53.230;10.390;2023-10-13T11:33:09;99965.34;;;18.74;100.00
76627;BME280;65519;53.230;10.390;2023-10-13T11:35:39;99967.00;;;18.87;100.00
76627;BME280;65519;53.230;10.390;2023-10-13T11:38:25;99956.88;;;18.91;100.00
76627;BME280;65519;53.230;10.390;2023-10-13T11:46:09;99963.13;;;19.13;100.00
76627;BME280;65519;53.230;10.390;2023-10-13T11:48:35;99956.09;;;19.15;100.00
76627;BME280;65519;53.230;10.390;2023-10-13T11:51:05;99956.34;;;19.22;100.00
76627;BME280;65519;53.230;10.390;2023-10-13T11:53:37;99943.09;;;19.28;100.00
76627;BME280;65519;53.230;10.390;2023-10-13T11:56:03;99928.34;;;19.36;100.00
76627;BME280;65519;53.230;10.390;2023-10-13T11:58:37;99924.47;;;19.49;100.00
76627;BME280;65519;53.230;10.390;2023-10-13T12:01:03;99911.09;;;19.51;100.00
76627;BME280;65519;53.230;10.390;2023-10-13T12:03:44;99901.22;;;19.90;100.00
76627;BME280;65519;53.230;10.390;2023-10-13T12:06:29;99904.13;;;19.82;100.00
76627;BME280;65519;53.230;10.390;2023-10-13T12:08:58;99891.25;;;19.74;100.00
76627;BME280;65519;53.230;10.390;2023-10-13T12:11:37;99902.31;;;19.61;100.00
76627;BME280;65519;53.230;10.390;2023-10-13T12:14:13;99900.03;;;19.63;100.00
76627;BME280;65519;53.230;10.390;2023-10-13T12:16:53;99888.03;;;19.72;100.00
76627;BME280;65519;53.230;10.390;2023-10-13T12:19:23;99896.44;;;20.03;100.00
76627;BME280;65519;53.230;10.390;2023-10-13T12:21:49;99890.19;;;20.62;100.00
76627;BME280;65519;53.230;10.390;2023-10-13T12:24:15;99887.59;;;20.53;100.00
76627;BME280;65519;53.230;10.390;2023-10-13T12:26:59;99897.53;;;20.70;100.00
76627;BME280;65519;53.230;10.390;2023-10-13T12:29:25;99883.16;;;20.96;100.00
76627;BME280;65519;53.230;10.390;2023-10-13T12:31:58;99889.56;;;21.00;100.00
76627;BME280;65519;53.230;10.390;2023-10-13T12:34:38;99873.59;;;20.93;100.00
76627;BME280;65519;53.230;10.390;2023-10-13T12:37:26;99869.66;;;20.94;100.00
76627;BME280;65519;53.230;10.390;2023-10-13T12:42:54;99865.81;;;20.52;100.00
76627;BME280;65519;53.230;10.390;2023-10-13T12:45:45;99862.50;;;20.77;100.00
76627;BME280;65519;53.230;10.390;2023-10-13T12:48:30;99860.50;;;21.09;100.00
76627;BME280;65519;53.230;10.390;2023-10-13T12:51:15;99859.47;;;20.83;100.00
76627;BME280;65519;53.230;10.390;2023-10-13T12:54:07;99865.81;;;20.67;100.00
76627;BME280;65519;53.230;10.390;2023-10-13T12:56:48;99870.13;;;20.65;100.00
76627;BME280;65519;53.230;10.390;2023-10-13T12:59:14;99873.31;;;20.51;100.00
76627;BME280;65519;53.230;10.390;2023-10-13T13:01:40;99860.63;;;20.50;100.00
76627;BME280;65519;53.230;10.390;2023-10-13T13:04:09;99854.03;;;20.55;100.00
76627;BME280;65519;53.230;10.390;2023-10-13T13:06:46;99882.66;;;20.47;100.00
76627;BME280;65519;53.230;10.390;2023-10-13T13:09:12;99859.44;;;20.35;100.00
76627;BME280;65519;53.230;10.390;2023-10-13T13:11:38;99847.66;;;20.38;100.00
76627;BME280;65519;53.230;10.390;2023-10-13T13:14:08;99850.19;;;20.44;100.00
76627;BME280;65519;53.230;10.390;2023-10-13T13:16:35;99838.13;;;20.52;100.00
76627;BME280;65519;53.230;10.390;2023-10-13T13:19:01;99856.16;;;20.61;100.00
76627;BME280;65519;53.230;10.390;2023-10-13T13:21:36;99823.72;;;20.77;100.00
76627;BME280;65519;53.230;10.390;2023-10-13T13:24:02;99808.66;;;20.75;100.00
76627;BME280;65519;53.230;10.390;2023-10-13T13:26:29;99796.13;;;20.81;100.00
76627;BME280;65519;53.230;10.390;2023-10-13T13:28:56;99788.72;;;20.85;100.00
76627;BME280;65519;53.230;10.390;2023-10-13T13:31:22;99791.16;;;21.06;100.00
76627;BME280;65519;53.230;10.390;2023-10-13T13:33:54;99780.06;;;21.22;100.00
76627;BME280;65519;53.230;10.390;2023-10-13T13:36:19;99790.72;;;21.04;100.00
76627;BME280;65519;53.230;10.390;2023-10-13T13:38:47;99778.69;;;20.96;100.00
76627;BME280;65519;53.230;10.390;2023-10-13T13:41:17;99765.81;;;20.88;100.00
76627;BME280;65519;53.230;10.390;2023-10-13T13:43:47;99778.53;;;20.73;100.00
76627;BME280;65519;53.230;10.390;2023-10-13T13:46:20;99773.25;;;20.68;100.00